sensor_id;sensor_type;location;lat;lon;timestamp;temperature;humidity
23683;DHT22;24897;53.514;10.482;2023-05-28T00:02:22;12.20;99.90
23683;DHT22;24897;53.514;10.482;2023-05-28T00:05:06;12.20;99.90
23683;DHT22;24897;53.514;10.482;2023-05-28T00:07:50;12.20;99.90
23683;DHT22;24897;53.514;10.482;2023-05-28T00:10:34;12.10;99.90
23683;DHT22;24897;53.514;10.482;2023-05-28T00:13:18;12.00;99.90
23683;DHT22;24897;53.514;10.482;2023-05-28T00:16:02;12.00;99.90
23683;DHT22;24897;53.514;10.482;2023-05-28T00:18:47;12.00;99.90
23683;DHT22;24897;53.514;10.482;2023-05-28T00:21:31;11.90;99.90
23683;DHT22;24897;53.514;10.482;2023-05-28T00:24:20;11.90;99.90
23683;DHT22;24897;53.514;10.482;2023-05-28T00:27:05;11.90;99.90
23683;DHT22;24897;53.514;10.482;2023-05-28T00:29:50;11.80;99.90
23683;DHT22;24897;53.514;10.482;2023-05-28T00:32:34;11.80;99.90
23683;DHT22;24897;53.514;10.482;2023-05-28T00:35:18;11.90;99.90
23683;DHT22;24897;53.514;10.482;2023-05-28T00:38:02;11.80;99.90
23683;DHT22;24897;53.514;10.482;2023-05-28T00:40:46;11.80;99.90
23683;DHT22;24897;53.514;10.482;2023-05-28T00:43:30;11.80;99.90
23683;DHT22;24897;53.514;10.482;2023-05-28T00:46:17;11.80;99.90
23683;DHT22;24897;53.514;10.482;2023-05-28T00:49:02;11.70;99.90
23683;DHT22;24897;53.514;10.482;2023-05-28T00:51:47;11.70;99.90
23683;DHT22;24897;53.514;10.482;2023-05-28T00:54:32;11.70;99.90
23683;DHT22;24897;53.514;10.482;2023-05-28T00:57:18;11.60;99.90
23683;DHT22;24897;53.514;10.482;2023-05-28T01:00:07;11.60;99.90
23683;DHT22;24897;53.514;10.482;2023-05-28T01:02:52;11.50;99.90
23683;DHT22;24897;53.514;10.482;2023-05-28T01:05:36;11.50;99.90
23683;DHT22;24897;53.514;10.482;2023-05-28T01:08:20;11.40;99.90
23683;DHT22;24897;53.514;10.482;2023-05-28T01:11:07;11.40;99.90
23683;DHT22;24897;53.514;10.482;2023-05-28T01:13:53;11.30;99.90
23683;DHT22;24897;53.514;10.482;2023-05-28T01:16:38;11.20;99.90
23683;DHT22;24897;53.514;10.482;2023-05-28T01:19:24;11.20;99.90
23683;DHT22;24897;53.514;10.482;2023-05-28T01:22:14;11.20;99.90
23683;DHT22;24897;53.514;10.482;2023-05-28T01:24:59;11.20;99.90
23683;DHT22;24897;53.514;10.482;2023-05-28T01:27:45;11.10;99.90
23683;DHT22;24897;53.514;10.482;2023-05-28T01:30:29;11.10;99.90
23683;DHT22;24897;53.514;10.482;2023-05-28T01:33:13;11.00;99.90
23683;DHT22;24897;53.514;10.482;2023-05-28T01:36:00;10.90;99.90
23683;DHT22;24897;53.514;10.482;2023-05-28T01:38:46;10.90;99.90
23683;DHT22;24897;53.514;10.482;2023-05-28T01:41:31;10.80;99.90
23683;DHT22;24897;53.514;10.482;2023-05-28T01:44:17;10.70;99.90
23683;DHT22;24897;53.514;10.482;2023-05-28T01:47:02;10.70;99.90
23683;DHT22;24897;53.514;10.482;2023-05-28T01:49:47;10.80;99.90
23683;DHT22;24897;53.514;10.482;2023-05-28T01:52:31;10.80;99.90
23683;DHT22;24897;53.514;10.482;2023-05-28T01:55:15;10.80;99.90
23683;DHT22;24897;53.514;10.482;2023-05-28T01:57:59;10.80;99.90
23683;DHT22;24897;53.514;10.482;2023-05-28T02:01:15;10.80;99.90
23683;DHT22;24897;53.514;10.482;2023-05-28T02:04:02;10.70;99.90
23683;DHT22;24897;53.514;10.482;2023-05-28T02:06:46;10.70;99.90
23683;DHT22;24897;53.514;10.482;2023-05-28T02:09:31;10.60;99.90
23683;DHT22;24897;53.514;10.482;2023-05-28T02:12:15;10.60;99.90
23683;DHT22;24897;53.514;10.482;2023-05-28T02:14:59;10.60;99.90
23683;DHT22;24897;53.514;10.482;2023-05-28T02:17:43;10.50;99.90
23683;DHT22;24897;53.514;10.482;2023-05-28T02:20:29;10.50;99.90
23683;DHT22;24897;53.514;10.482;2023-05-28T02:23:13;10.50;99.90
23683;DHT22;24897;53.514;10.482;2023-05-28T02:25:57;10.50;99.90
23683;DHT22;24897;53.514;10.482;2023-05-28T02:28:41;10.50;99.90
23683;DHT22;24897;53.514;10.482;2023-05-28T02:31:28;10.40;99.90
23683;DHT22;24897;53.514;10.482;2023-05-28T02:34:12;10.40;99.90
23683;DHT22;24897;53.514;10.482;2023-05-28T02:36:57;10.40;99.90
23683;DHT22;24897;53.514;10.482;2023-05-28T02:39:41;10.30;99.90
23683;DHT22;24897;53.514;10.482;2023-05-28T02:42:29;10.30;99.90
23683;DHT22;24897;53.514;10.482;2023-05-28T02:45:13;10.30;99.90
23683;DHT22;24897;53.514;10.482;2023-05-28T02:47:57;10.20;99.90
23683;DHT22;24897;53.514;10.482;2023-05-28T02:50:41;10.10;99.90
23683;DHT22;24897;53.514;10.482;2023-05-28T02:53:29;10.10;99.90
23683;DHT22;24897;53.514;10.482;2023-05-28T02:56:14;10.10;99.90
23683;DHT22;24897;53.514;10.482;2023-05-28T02:58:59;10.10;99.90
23683;DHT22;24897;53.514;10.482;2023-05-28T03:01:43;10.10;99.90
23683;DHT22;24897;53.514;10.482;2023-05-28T03:04:27;10.00;99.90
23683;DHT22;24897;53.514;10.482;2023-05-28T03:07:12;10.00;99.90
23683;DHT22;24897;53.514;10.482;2023-05-28T03:09:57;10.00;99.90
23683;DHT22;24897;53.514;10.482;2023-05-28T03:12:41;10.00;99.90
23683;DHT22;24897;53.514;10.482;2023-05-28T03:15:25;10.00;99.90
23683;DHT22;24897;53.514;10.482;2023-05-28T03:18:10;10.00;99.90
23683;DHT22;24897;53.514;10.482;2023-05-28T03:20:54;10.00;99.90
23683;DHT22;24897;53.514;10.482;2023-05-28T03:23:39;10.00;99.90
23683;DHT22;24897;53.514;10.482;2023-05-28T03:26:23;10.10;99.90
23683;DHT22;24897;53.514;10.482;2023-05-28T03:29:07;10.10;99.90
23683;DHT22;24897;53.514;10.482;2023-05-28T03:31:52;10.30;99.90
23683;DHT22;24897;53.514;10.482;2023-05-28T03:34:36;10.40;99.90
23683;DHT22;24897;53.514;10.482;2023-05-28T03:37:20;10.50;99.90
23683;DHT22;24897;53.514;10.482;2023-05-28T03:40:05;10.70;99.90
23683;DHT22;24897;53.514;10.482;2023-05-28T03:42:51;11.00;99.90
23683;DHT22;24897;53.514;10.482;2023-05-28T03:45:35;11.20;99.90
23683;DHT22;24897;53.514;10.482;2023-05-28T03:48:19;11.40;99.90
23683;DHT22;24897;53.514;10.482;2023-05-28T03:51:03;11.70;99.90
23683;DHT22;24897;53.514;10.482;2023-05-28T03:53:48;12.10;99.90
23683;DHT22;24897;53.514;10.482;2023-05-28T03:56:33;12.30;99.90
23683;DHT22;24897;53.514;10.482;2023-05-28T03:59:18;12.60;99.90
23683;DHT22;24897;53.514;10.482;2023-05-28T04:02:02;13.00;99.90
23683;DHT22;24897;53.514;10.482;2023-05-28T04:04:46;13.50;99.90
23683;DHT22;24897;53.514;10.482;2023-05-28T04:07:31;14.00;99.90
23683;DHT22;24897;53.514;10.482;2023-05-28T04:10:15;14.50;99.90
23683;DHT22;24897;53.514;10.482;2023-05-28T04:12:59;14.90;99.90
23683;DHT22;24897;53.514;10.482;2023-05-28T04:15:43;15.30;99.90
23683;DHT22;24897;53.514;10.482;2023-05-28T04:18:28;15.60;99.90
23683;DHT22;24897;53.514;10.482;2023-05-28T04:21:12;16.00;99.90
23683;DHT22;24897;53.514;10.482;2023-05-28T04:23:57;16.40;99.90
23683;DHT22;24897;53.514;10.482;2023-05-28T04:26:41;16.70;99.90
23683;DHT22;24897;53.514;10.482;2023-05-28T04:29:25;17.20;99.90
23683;DHT22;24897;53.514;10.482;2023-05-28T04:32:12;17.90;99.90
23683;DHT22;24897;53.514;10.482;2023-05-28T04:34:56;18.10;99.90
23683;DHT22;24897;53.514;10.482;2023-05-28T04:37:40;18.20;99.90
23683;DHT22;24897;53.514;10.482;2023-05-28T04:40:24;18.00;99.90
23683;DHT22;24897;53.514;10.482;2023-05-28T04:43:08;17.50;99.90
23683;DHT22;24897;53.514;10.482;2023-05-28T04:45:52;17.10;99.90
23683;DHT22;24897;53.514;10.482;2023-05-28T04:48:37;17.30;99.90
23683;DHT22;24897;53.514;10.482;2023-05-28T04:51:21;18.10;99.90
23683;DHT22;24897;53.514;10.482;2023-05-28T04:54:05;19.10;99.90
23683;DHT22;24897;53.514;10.482;2023-05-28T04:56:50;19.90;99.90
23683;DHT22;24897;53.514;10.482;2023-05-28T04:59:34;20.30;99.90
23683;DHT22;24897;53.514;10.482;2023-05-28T05:02:19;19.90;99.90
23683;DHT22;24897;53.514;10.482;2023-05-28T05:05:04;20.00;99.90
23683;DHT22;24897;53.514;10.482;2023-05-28T05:07:49;20.00;99.90
23683;DHT22;24897;53.514;10.482;2023-05-28T05:10:36;20.10;99.90
23683;DHT22;24897;53.514;10.482;2023-05-28T05:13:20;20.50;99.90
23683;DHT22;24897;53.514;10.482;2023-05-28T05:16:04;21.20;99.90
23683;DHT22;24897;53.514;10.482;2023-05-28T05:18:48;21.90;99.90
23683;DHT22;24897;53.514;10.482;2023-05-28T05:21:32;22.70;99.90
23683;DHT22;24897;53.514;10.482;2023-05-28T05:24:16;23.30;99.90
23683;DHT22;24897;53.514;10.482;2023-05-28T05:27:00;23.50;99.90
23683;DHT22;24897;53.514;10.482;2023-05-28T05:29:45;23.70;99.90
23683;DHT22;24897;53.514;10.482;2023-05-28T05:32:29;23.50;99.90
23683;DHT22;24897;53.514;10.482;2023-05-28T05:35:14;23.40;99.90
23683;DHT22;24897;53.514;10.482;2023-05-28T05:37:59;23.80;99.90
23683;DHT22;24897;53.514;10.482;2023-05-28T05:40:43;24.20;99.90
23683;DHT22;24897;53.514;10.482;2023-05-28T05:43:28;24.50;99.90
23683;DHT22;24897;53.514;10.482;2023-05-28T05:46:12;25.20;99.90
23683;DHT22;24897;53.514;10.482;2023-05-28T05:48:56;25.10;99.90
23683;DHT22;24897;53.514;10.482;2023-05-28T05:51:40;25.40;99.90
23683;DHT22;24897;53.514;10.482;2023-05-28T05:54:24;25.40;99.90
23683;DHT22;24897;53.514;10.482;2023-05-28T05:57:08;25.70;99.90
23683;DHT22;24897;53.514;10.482;2023-05-28T05:59:53;25.10;99.90
23683;DHT22;24897;53.514;10.482;2023-05-28T06:02:39;24.50;99.90
23683;DHT22;24897;53.514;10.482;2023-05-28T06:05:23;24.40;99.90
23683;DHT22;24897;53.514;10.482;2023-05-28T06:08:08;24.60;99.90
23683;DHT22;24897;53.514;10.482;2023-05-28T06:10:52;24.90;99.90
23683;DHT22;24897;53.514;10.482;2023-05-28T06:13:36;25.70;99.90
23683;DHT22;24897;53.514;10.482;2023-05-28T06:16:21;25.70;99.90
23683;DHT22;24897;53.514;10.482;2023-05-28T06:19:06;26.00;99.90
23683;DHT22;24897;53.514;10.482;2023-05-28T06:21:50;26.50;99.90
23683;DHT22;24897;53.514;10.482;2023-05-28T06:24:35;26.50;99.90
23683;DHT22;24897;53.514;10.482;2023-05-28T06:27:20;26.70;99.90
23683;DHT22;24897;53.514;10.482;2023-05-28T06:30:05;27.50;99.90
23683;DHT22;24897;53.514;10.482;2023-05-28T06:32:49;27.80;99.90
23683;DHT22;24897;53.514;10.482;2023-05-28T06:35:34;27.80;99.90
23683;DHT22;24897;53.514;10.482;2023-05-28T06:38:18;28.10;99.90
23683;DHT22;24897;53.514;10.482;2023-05-28T06:41:02;28.00;99.90
23683;DHT22;24897;53.514;10.482;2023-05-28T06:43:48;27.10;99.90
23683;DHT22;24897;53.514;10.482;2023-05-28T06:46:32;25.90;99.90
23683;DHT22;24897;53.514;10.482;2023-05-28T06:49:16;24.80;99.90
23683;DHT22;24897;53.514;10.482;2023-05-28T06:52:00;23.90;99.90
23683;DHT22;24897;53.514;10.482;2023-05-28T06:54:45;22.90;99.90
23683;DHT22;24897;53.514;10.482;2023-05-28T06:57:29;22.30;99.90
23683;DHT22;24897;53.514;10.482;2023-05-28T07:00:14;22.40;99.90
23683;DHT22;24897;53.514;10.482;2023-05-28T07:03:01;22.40;99.90
23683;DHT22;24897;53.514;10.482;2023-05-28T07:05:45;22.80;99.90
23683;DHT22;24897;53.514;10.482;2023-05-28T07:08:30;22.60;99.90
23683;DHT22;24897;53.514;10.482;2023-05-28T07:11:14;22.50;99.90
23683;DHT22;24897;53.514;10.482;2023-05-28T07:13:59;22.80;99.90
23683;DHT22;24897;53.514;10.482;2023-05-28T07:16:43;23.30;99.90
23683;DHT22;24897;53.514;10.482;2023-05-28T07:19:27;23.60;99.90
23683;DHT22;24897;53.514;10.482;2023-05-28T07:22:11;23.70;99.90
23683;DHT22;24897;53.514;10.482;2023-05-28T07:24:55;23.10;99.90
23683;DHT22;24897;53.514;10.482;2023-05-28T07:27:40;22.10;99.90
23683;DHT22;24897;53.514;10.482;2023-05-28T07:30:24;21.60;99.90
23683;DHT22;24897;53.514;10.482;2023-05-28T07:33:08;21.00;99.90
23683;DHT22;24897;53.514;10.482;2023-05-28T07:35:53;20.80;99.90
23683;DHT22;24897;53.514;10.482;2023-05-28T07:38:41;20.70;99.90
23683;DHT22;24897;53.514;10.482;2023-05-28T07:41:25;20.40;99.90
23683;DHT22;24897;53.514;10.482;2023-05-28T07:44:09;20.20;99.90
23683;DHT22;24897;53.514;10.482;2023-05-28T07:46:53;20.30;99.90
23683;DHT22;24897;53.514;10.482;2023-05-28T07:49:37;20.30;99.90
23683;DHT22;24897;53.514;10.482;2023-05-28T07:52:21;20.50;99.90
23683;DHT22;24897;53.514;10.482;2023-05-28T07:55:06;20.90;99.90
23683;DHT22;24897;53.514;10.482;2023-05-28T07:57:50;21.10;99.90
23683;DHT22;24897;53.514;10.482;2023-05-28T08:00:35;21.30;99.90
23683;DHT22;24897;53.514;10.482;2023-05-28T08:03:20;21.30;99.90
23683;DHT22;24897;53.514;10.482;2023-05-28T08:06:05;21.20;99.90
23683;DHT22;24897;53.514;10.482;2023-05-28T08:08:50;21.00;99.90
23683;DHT22;24897;53.514;10.482;2023-05-28T08:11:34;20.80;99.90
23683;DHT22;24897;53.514;10.482;2023-05-28T08:14:19;20.70;99.90
23683;DHT22;24897;53.514;10.482;2023-05-28T08:17:03;20.60;99.90
23683;DHT22;24897;53.514;10.482;2023-05-28T08:19:48;20.80;99.90
23683;DHT22;24897;53.514;10.482;2023-05-28T08:22:32;21.10;99.90
23683;DHT22;24897;53.514;10.482;2023-05-28T08:25:17;21.40;99.90
23683;DHT22;24897;53.514;10.482;2023-05-28T08:28:01;21.90;99.90
23683;DHT22;24897;53.514;10.482;2023-05-28T08:30:45;22.30;99.90
23683;DHT22;24897;53.514;10.482;2023-05-28T08:33:29;22.60;99.90
23683;DHT22;24897;53.514;10.482;2023-05-28T08:36:13;22.90;99.90
23683;DHT22;24897;53.514;10.482;2023-05-28T08:38:57;23.40;99.90
23683;DHT22;24897;53.514;10.482;2023-05-28T08:41:43;23.50;99.90
23683;DHT22;24897;53.514;10.482;2023-05-28T08:44:27;23.00;99.90
23683;DHT22;24897;53.514;10.482;2023-05-28T08:47:12;22.90;99.90
23683;DHT22;24897;53.514;10.482;2023-05-28T08:50:02;23.30;99.90
23683;DHT22;24897;53.514;10.482;2023-05-28T08:52:48;23.90;99.90
23683;DHT22;24897;53.514;10.482;2023-05-28T08:55:33;24.20;99.90
23683;DHT22;24897;53.514;10.482;2023-05-28T08:58:20;24.30;99.90
23683;DHT22;24897;53.514;10.482;2023-05-28T09:01:06;24.30;99.90
23683;DHT22;24897;53.514;10.482;2023-05-28T09:03:50;24.50;99.90
23683;DHT22;24897;53.514;10.482;2023-05-28T09:06:38;24.40;99.90
23683;DHT22;24897;53.514;10.482;2023-05-28T09:09:23;24.30;99.90
23683;DHT22;24897;53.514;10.482;2023-05-28T09:12:12;24.10;99.90
23683;DHT22;24897;53.514;10.482;2023-05-28T09:14:56;23.80;99.90
23683;DHT22;24897;53.514;10.482;2023-05-28T09:17:40;23.40;99.90
23683;DHT22;24897;53.514;10.482;2023-05-28T09:20:24;23.60;99.90
23683;DHT22;24897;53.514;10.482;2023-05-28T09:23:09;23.60;99.90
23683;DHT22;24897;53.514;10.482;2023-05-28T09:25:55;23.70;99.90
23683;DHT22;24897;53.514;10.482;2023-05-28T09:28:43;23.90;99.90
23683;DHT22;24897;53.514;10.482;2023-05-28T09:31:33;23.60;99.90
23683;DHT22;24897;53.514;10.482;2023-05-28T09:34:18;23.50;99.90
23683;DHT22;24897;53.514;10.482;2023-05-28T09:37:03;23.40;99.90
23683;DHT22;24897;53.514;10.482;2023-05-28T09:39:59;23.60;99.90
23683;DHT22;24897;53.514;10.482;2023-05-28T09:42:43;24.10;99.90
23683;DHT22;24897;53.514;10.482;2023-05-28T09:45:28;24.40;99.90
23683;DHT22;24897;53.514;10.482;2023-05-28T09:48:12;24.40;99.90
23683;DHT22;24897;53.514;10.482;2023-05-28T09:50:57;24.80;99.90
23683;DHT22;24897;53.514;10.482;2023-05-28T09:53:44;25.30;99.90
23683;DHT22;24897;53.514;10.482;2023-05-28T09:56:31;25.40;99.90
23683;DHT22;24897;53.514;10.482;2023-05-28T09:59:18;25.30;99.90
23683;DHT22;24897;53.514;10.482;2023-05-28T10:02:32;25.20;99.90
23683;DHT22;24897;53.514;10.482;2023-05-28T10:05:20;25.30;99.90
23683;DHT22;24897;53.514;10.482;2023-05-28T10:08:05;25.70;99.90
23683;DHT22;24897;53.514;10.482;2023-05-28T10:10:53;25.90;99.90
23683;DHT22;24897;53.514;10.482;2023-05-28T10:13:37;26.20;99.90
23683;DHT22;24897;53.514;10.482;2023-05-28T10:16:22;25.80;99.90
23683;DHT22;24897;53.514;10.482;2023-05-28T10:19:08;25.70;99.90
23683;DHT22;24897;53.514;10.482;2023-05-28T10:21:53;26.00;99.90
23683;DHT22;24897;53.514;10.482;2023-05-28T10:24:39;26.20;99.90
23683;DHT22;24897;53.514;10.482;2023-05-28T10:27:29;26.20;99.90
23683;DHT22;24897;53.514;10.482;2023-05-28T10:30:37;26.30;99.90
23683;DHT22;24897;53.514;10.482;2023-05-28T10:33:21;26.10;99.90
23683;DHT22;24897;53.514;10.482;2023-05-28T10:36:13;25.70;99.90
23683;DHT22;24897;53.514;10.482;2023-05-28T10:38:58;25.80;99.90
23683;DHT22;24897;53.514;10.482;2023-05-28T10:41:43;25.50;99.90
23683;DHT22;24897;53.514;10.482;2023-05-28T10:50:17;24.40;99.90
23683;DHT22;24897;53.514;10.482;2023-05-28T10:53:06;25.30;99.90
23683;DHT22;24897;53.514;10.482;2023-05-28T10:58:36;26.60;99.90
23683;DHT22;24897;53.514;10.482;2023-05-28T11:01:20;26.70;99.90
23683;DHT22;24897;53.514;10.482;2023-05-28T11:04:07;26.80;99.90
23683;DHT22;24897;53.514;10.482;2023-05-28T11:06:51;26.80;99.90
23683;DHT22;24897;53.514;10.482;2023-05-28T11:09:35;26.20;99.90
23683;DHT22;24897;53.514;10.482;2023-05-28T11:12:20;25.30;99.90
23683;DHT22;24897;53.514;10.482;2023-05-28T11:15:06;24.50;99.90
23683;DHT22;24897;53.514;10.482;2023-05-28T11:17:51;24.00;99.90
23683;DHT22;24897;53.514;10.482;2023-05-28T11:20:35;23.80;99.90
23683;DHT22;24897;53.514;10.482;2023-05-28T11:23:19;24.20;99.90
23683;DHT22;24897;53.514;10.482;2023-05-28T11:26:05;24.70;99.90
23683;DHT22;24897;53.514;10.482;2023-05-28T11:28:50;25.20;99.90
23683;DHT22;24897;53.514;10.482;2023-05-28T11:31:41;25.80;99.90
23683;DHT22;24897;53.514;10.482;2023-05-28T11:34:26;26.70;99.90
23683;DHT22;24897;53.514;10.482;2023-05-28T11:37:10;27.10;99.90
23683;DHT22;24897;53.514;10.482;2023-05-28T11:39:56;27.50;99.90
23683;DHT22;24897;53.514;10.482;2023-05-28T11:42:43;27.80;99.90
23683;DHT22;24897;53.514;10.482;2023-05-28T11:45:28;28.00;99.90
23683;DHT22;24897;53.514;10.482;2023-05-28T11:48:19;27.60;99.90
23683;DHT22;24897;53.514;10.482;2023-05-28T11:51:05;26.80;99.90
23683;DHT22;24897;53.514;10.482;2023-05-28T11:53:49;26.10;99.90
23683;DHT22;24897;53.514;10.482;2023-05-28T11:56:34;25.40;99.90
23683;DHT22;24897;53.514;10.482;2023-05-28T11:59:22;25.20;99.90
23683;DHT22;24897;53.514;10.482;2023-05-28T12:02:15;25.30;99.90
23683;DHT22;24897;53.514;10.482;2023-05-28T12:05:01;25.20;99.90
23683;DHT22;24897;53.514;10.482;2023-05-28T12:10:30;24.90;99.90
23683;DHT22;24897;53.514;10.482;2023-05-28T12:13:15;25.40;99.90
23683;DHT22;24897;53.514;10.482;2023-05-28T12:16:06;26.00;99.90
23683;DHT22;24897;53.514;10.482;2023-05-28T12:18:51;26.60;99.90
23683;DHT22;24897;53.514;10.482;2023-05-28T12:21:35;26.70;99.90
23683;DHT22;24897;53.514;10.482;2023-05-28T12:24:20;26.50;99.90
23683;DHT22;24897;53.514;10.482;2023-05-28T12:27:04;26.60;99.90
23683;DHT22;24897;53.514;10.482;2023-05-28T12:29:49;27.10;99.90
23683;DHT22;24897;53.514;10.482;2023-05-28T12:32:36;26.90;99.90
23683;DHT22;24897;53.514;10.482;2023-05-28T12:35:20;26.40;99.90
23683;DHT22;24897;53.514;10.482;2023-05-28T12:38:04;26.20;99.90
23683;DHT22;24897;53.514;10.482;2023-05-28T12:40:49;26.40;99.90
23683;DHT22;24897;53.514;10.482;2023-05-28T12:43:33;26.70;99.90
23683;DHT22;24897;53.514;10.482;2023-05-28T12:46:17;26.80;99.90
23683;DHT22;24897;53.514;10.482;2023-05-28T12:49:02;26.70;99.90
23683;DHT22;24897;53.514;10.482;2023-05-28T12:51:46;26.50;99.90
23683;DHT22;24897;53.514;10.482;2023-05-28T12:54:32;26.50;99.90
23683;DHT22;24897;53.514;10.482;2023-05-28T12:57:16;26.80;99.90
23683;DHT22;24897;53.514;10.482;2023-05-28T13:00:01;26.90;99.90
23683;DHT22;24897;53.514;10.482;2023-05-28T13:02:45;26.90;99.90
23683;DHT22;24897;53.514;10.482;2023-05-28T13:05:30;26.40;99.90
23683;DHT22;24897;53.514;10.482;2023-05-28T13:08:16;25.90;99.90
23683;DHT22;24897;53.514;10.482;2023-05-28T13:11:01;25.60;99.90
23683;DHT22;24897;53.514;10.482;2023-05-28T13:13:45;25.50;99.90
23683;DHT22;24897;53.514;10.482;2023-05-28T13:16:29;25.50;99.90
23683;DHT22;24897;53.514;10.482;2023-05-28T13:19:13;25.70;99.90
23683;DHT22;24897;53.514;10.482;2023-05-28T13:21:57;25.80;99.90
23683;DHT22;24897;53.514;10.482;2023-05-28T13:24:43;25.90;99.90
23683;DHT22;24897;53.514;10.482;2023-05-28T13:27:27;25.90;99.90
23683;DHT22;24897;53.514;10.482;2023-05-28T13:30:12;25.60;99.90
23683;DHT22;24897;53.514;10.482;2023-05-28T13:32:57;25.40;99.90
23683;DHT22;24897;53.514;10.482;2023-05-28T13:35:41;25.10;99.90
23683;DHT22;24897;53.514;10.482;2023-05-28T13:38:26;24.50;99.90
23683;DHT22;24897;53.514;10.482;2023-05-28T13:41:12;24.30;99.90
23683;DHT22;24897;53.514;10.482;2023-05-28T13:43:56;24.10;99.90
23683;DHT22;24897;53.514;10.482;2023-05-28T13:46:40;24.20;99.90
23683;DHT22;24897;53.514;10.482;2023-05-28T13:49:25;24.60;99.90
23683;DHT22;24897;53.514;10.482;2023-05-28T13:52:09;24.70;99.90
23683;DHT22;24897;53.514;10.482;2023-05-28T13:54:54;24.80;99.90
23683;DHT22;24897;53.514;10.482;2023-05-28T13:57:38;25.00;99.90
23683;DHT22;24897;53.514;10.482;2023-05-28T14:00:22;24.90;99.90
23683;DHT22;24897;53.514;10.482;2023-05-28T14:03:06;24.40;99.90
23683;DHT22;24897;53.514;10.482;2023-05-28T14:05:53;23.90;99.90
23683;DHT22;24897;53.514;10.482;2023-05-28T14:08:37;23.70;99.90
23683;DHT22;24897;53.514;10.482;2023-05-28T14:11:21;23.20;99.90
23683;DHT22;24897;53.514;10.482;2023-05-28T14:14:05;22.90;99.90
23683;DHT22;24897;53.514;10.482;2023-05-28T14:16:49;23.00;99.90
23683;DHT22;24897;53.514;10.482;2023-05-28T14:19:34;23.00;99.90
23683;DHT22;24897;53.514;10.482;2023-05-28T14:22:18;23.40;99.90
23683;DHT22;24897;53.514;10.482;2023-05-28T14:25:02;23.70;99.90
23683;DHT22;24897;53.514;10.482;2023-05-28T14:27:46;24.10;99.90
23683;DHT22;24897;53.514;10.482;2023-05-28T14:30:30;24.10;99.90
23683;DHT22;24897;53.514;10.482;2023-05-28T14:33:17;24.20;99.90
23683;DHT22;24897;53.514;10.482;2023-05-28T14:36:02;24.50;99.90
23683;DHT22;24897;53.514;10.482;2023-05-28T14:38:46;24.10;99.90
23683;DHT22;24897;53.514;10.482;2023-05-28T14:41:31;23.70;99.90
23683;DHT22;24897;53.514;10.482;2023-05-28T14:44:15;23.40;99.90
23683;DHT22;24897;53.514;10.482;2023-05-28T14:46:59;23.20;99.90
23683;DHT22;24897;53.514;10.482;2023-05-28T14:49:43;23.30;99.90
23683;DHT22;24897;53.514;10.482;2023-05-28T14:52:29;23.70;99.90
23683;DHT22;24897;53.514;10.482;2023-05-28T14:55:14;23.90;99.90
23683;DHT22;24897;53.514;10.482;2023-05-28T14:57:58;24.30;99.90
23683;DHT22;24897;53.514;10.482;2023-05-28T15:00:42;24.30;99.90
23683;DHT22;24897;53.514;10.482;2023-05-28T15:03:26;24.00;99.90
23683;DHT22;24897;53.514;10.482;2023-05-28T15:06:10;23.90;99.90
23683;DHT22;24897;53.514;10.482;2023-05-28T15:08:55;24.00;99.90
23683;DHT22;24897;53.514;10.482;2023-05-28T15:11:39;23.90;99.90
23683;DHT22;24897;53.514;10.482;2023-05-28T15:14:26;23.50;99.90
23683;DHT22;24897;53.514;10.482;2023-05-28T15:17:14;23.20;99.90
23683;DHT22;24897;53.514;10.482;2023-05-28T15:19:58;23.30;99.90
23683;DHT22;24897;53.514;10.482;2023-05-28T15:22:42;23.20;99.90
23683;DHT22;24897;53.514;10.482;2023-05-28T15:25:26;23.20;99.90
23683;DHT22;24897;53.514;10.482;2023-05-28T15:28:10;23.40;99.90
23683;DHT22;24897;53.514;10.482;2023-05-28T15:30:56;23.50;99.90
23683;DHT22;24897;53.514;10.482;2023-05-28T15:33:41;23.70;99.90
23683;DHT22;24897;53.514;10.482;2023-05-28T15:36:28;23.80;99.90
23683;DHT22;24897;53.514;10.482;2023-05-28T15:39:12;23.60;99.90
23683;DHT22;24897;53.514;10.482;2023-05-28T15:41:58;23.70;99.90
23683;DHT22;24897;53.514;10.482;2023-05-28T15:44:44;23.50;99.90
23683;DHT22;24897;53.514;10.482;2023-05-28T15:47:28;23.50;99.90
23683;DHT22;24897;53.514;10.482;2023-05-28T15:50:12;23.40;99.90
23683;DHT22;24897;53.514;10.482;2023-05-28T15:52:57;23.30;99.90
23683;DHT22;24897;53.514;10.482;2023-05-28T15:55:41;23.00;99.90
23683;DHT22;24897;53.514;10.482;2023-05-28T15:58:29;22.70;99.90
23683;DHT22;24897;53.514;10.482;2023-05-28T16:01:15;22.40;99.90
23683;DHT22;24897;53.514;10.482;2023-05-28T16:04:00;22.20;99.90
23683;DHT22;24897;53.514;10.482;2023-05-28T16:06:45;22.20;99.90
23683;DHT22;24897;53.514;10.482;2023-05-28T16:09:29;22.20;99.90
23683;DHT22;24897;53.514;10.482;2023-05-28T16:12:14;22.10;99.90
23683;DHT22;24897;53.514;10.482;2023-05-28T16:15:05;21.90;99.90
23683;DHT22;24897;53.514;10.482;2023-05-28T16:17:51;21.70;99.90
23683;DHT22;24897;53.514;10.482;2023-05-28T16:20:37;21.60;99.90
23683;DHT22;24897;53.514;10.482;2023-05-28T16:23:22;21.60;99.90
23683;DHT22;24897;53.514;10.482;2023-05-28T16:26:07;21.60;99.90
23683;DHT22;24897;53.514;10.482;2023-05-28T16:28:51;21.70;99.90
23683;DHT22;24897;53.514;10.482;2023-05-28T16:31:36;21.70;99.90
23683;DHT22;24897;53.514;10.482;2023-05-28T16:34:21;21.70;99.90
23683;DHT22;24897;53.514;10.482;2023-05-28T16:37:07;21.50;99.90
23683;DHT22;24897;53.514;10.482;2023-05-28T16:39:52;21.60;99.90
23683;DHT22;24897;53.514;10.482;2023-05-28T16:42:37;21.60;99.90
23683;DHT22;24897;53.514;10.482;2023-05-28T16:45:23;21.70;99.90
23683;DHT22;24897;53.514;10.482;2023-05-28T16:48:08;21.60;99.90
23683;DHT22;24897;53.514;10.482;2023-05-28T16:50:54;21.50;99.90
23683;DHT22;24897;53.514;10.482;2023-05-28T16:53:40;21.40;99.90
23683;DHT22;24897;53.514;10.482;2023-05-28T16:56:25;21.40;99.90
23683;DHT22;24897;53.514;10.482;2023-05-28T16:59:13;21.10;99.90
23683;DHT22;24897;53.514;10.482;2023-05-28T17:01:57;21.00;99.90
23683;DHT22;24897;53.514;10.482;2023-05-28T17:04:44;21.00;99.90
23683;DHT22;24897;53.514;10.482;2023-05-28T17:07:29;20.90;99.90
23683;DHT22;24897;53.514;10.482;2023-05-28T17:10:14;21.10;99.90
23683;DHT22;24897;53.514;10.482;2023-05-28T17:12:58;21.10;99.90
23683;DHT22;24897;53.514;10.482;2023-05-28T17:15:43;21.10;99.90
23683;DHT22;24897;53.514;10.482;2023-05-28T17:18:27;21.00;99.90